sensor_id;sensor_type;location;lat;lon;timestamp;P1;durP1;ratioP1;P2;durP2;ratioP2
8419;SDS011;4247;48.550;8.822;2023-06-19T00:00:05;6.23;;;2.80;;
8419;SDS011;4247;48.550;8.822;2023-06-19T00:02:38;3.33;;;2.90;;
8419;SDS011;4247;48.550;8.822;2023-06-19T00:05:05;2.87;;;2.67;;
8419;SDS011;4247;48.550;8.822;2023-06-19T00:07:32;2.40;;;2.30;;
8419;SDS011;4247;48.550;8.822;2023-06-19T00:09:59;2.90;;;2.70;;
8419;SDS011;4247;48.550;8.822;2023-06-19T00:12:27;2.60;;;2.40;;
8419;SDS011;4247;48.550;8.822;2023-06-19T00:14:54;3.63;;;2.43;;
8419;SDS011;4247;48.550;8.822;2023-06-19T00:17:21;3.53;;;2.47;;
8419;SDS011;4247;48.550;8.822;2023-06-19T00:19:51;2.33;;;2.13;;
8419;SDS011;4247;48.550;8.822;2023-06-19T00:22:18;6.20;;;3.23;;
8419;SDS011;4247;48.550;8.822;2023-06-19T00:24:46;3.83;;;2.73;;
8419;SDS011;4247;48.550;8.822;2023-06-19T00:27:12;2.90;;;2.63;;
8419;SDS011;4247;48.550;8.822;2023-06-19T00:29:40;3.03;;;2.67;;
8419;SDS011;4247;48.550;8.822;2023-06-19T00:32:07;2.80;;;2.60;;
8419;SDS011;4247;48.550;8.822;2023-06-19T00:34:34;4.93;;;2.67;;
8419;SDS011;4247;48.550;8.822;2023-06-19T00:37:02;2.60;;;2.37;;
8419;SDS011;4247;48.550;8.822;2023-06-19T00:39:29;2.97;;;2.67;;
8419;SDS011;4247;48.550;8.822;2023-06-19T00:41:56;3.80;;;3.50;;
8419;SDS011;4247;48.550;8.822;2023-06-19T00:44:22;2.87;;;2.60;;
8419;SDS011;4247;48.550;8.822;2023-06-19T00:46:51;3.50;;;2.43;;
8419;SDS011;4247;48.550;8.822;2023-06-19T00:49:22;5.77;;;3.57;;
8419;SDS011;4247;48.550;8.822;2023-06-19T00:51:50;4.80;;;3.27;;
8419;SDS011;4247;48.550;8.822;2023-06-19T00:54:17;5.83;;;3.50;;
8419;SDS011;4247;48.550;8.822;2023-06-19T00:56:45;8.53;;;2.70;;
8419;SDS011;4247;48.550;8.822;2023-06-19T00:59:14;5.00;;;2.70;;
8419;SDS011;4247;48.550;8.822;2023-06-19T01:01:42;4.10;;;3.43;;
8419;SDS011;4247;48.550;8.822;2023-06-19T01:04:10;3.53;;;2.90;;
8419;SDS011;4247;48.550;8.822;2023-06-19T01:06:40;5.17;;;2.67;;
8419;SDS011;4247;48.550;8.822;2023-06-19T01:09:13;3.60;;;1.93;;
8419;SDS011;4247;48.550;8.822;2023-06-19T01:11:43;4.13;;;2.87;;
8419;SDS011;4247;48.550;8.822;2023-06-19T01:14:26;2.53;;;2.33;;
8419;SDS011;4247;48.550;8.822;2023-06-19T01:16:58;3.27;;;2.93;;
8419;SDS011;4247;48.550;8.822;2023-06-19T01:19:27;3.97;;;2.77;;
8419;SDS011;4247;48.550;8.822;2023-06-19T01:21:54;3.13;;;2.50;;
8419;SDS011;4247;48.550;8.822;2023-06-19T01:24:22;3.70;;;2.40;;
8419;SDS011;4247;48.550;8.822;2023-06-19T01:26:49;2.60;;;2.40;;
8419;SDS011;4247;48.550;8.822;2023-06-19T01:29:17;3.67;;;2.80;;
8419;SDS011;4247;48.550;8.822;2023-06-19T01:31:45;4.80;;;3.00;;
8419;SDS011;4247;48.550;8.822;2023-06-19T01:34:18;2.77;;;2.57;;
8419;SDS011;4247;48.550;8.822;2023-06-19T01:36:47;2.77;;;2.57;;
8419;SDS011;4247;48.550;8.822;2023-06-19T01:39:15;2.43;;;2.23;;
8419;SDS011;4247;48.550;8.822;2023-06-19T01:41:44;3.60;;;2.70;;
8419;SDS011;4247;48.550;8.822;2023-06-19T01:44:12;2.17;;;1.97;;
8419;SDS011;4247;48.550;8.822;2023-06-19T01:46:39;2.37;;;2.17;;
8419;SDS011;4247;48.550;8.822;2023-06-19T01:49:06;2.47;;;1.90;;
8419;SDS011;4247;48.550;8.822;2023-06-19T01:51:34;1.80;;;1.70;;
8419;SDS011;4247;48.550;8.822;2023-06-19T01:54:01;2.10;;;1.43;;
8419;SDS011;4247;48.550;8.822;2023-06-19T01:56:29;1.60;;;1.50;;
8419;SDS011;4247;48.550;8.822;2023-06-19T01:58:57;1.80;;;1.70;;
8419;SDS011;4247;48.550;8.822;2023-06-19T02:01:24;2.43;;;1.70;;
8419;SDS011;4247;48.550;8.822;2023-06-19T02:03:51;1.80;;;1.60;;
8419;SDS011;4247;48.550;8.822;2023-06-19T02:06:18;1.97;;;1.33;;
8419;SDS011;4247;48.550;8.822;2023-06-19T02:08:46;1.93;;;1.30;;
8419;SDS011;4247;48.550;8.822;2023-06-19T02:11:13;3.40;;;1.77;;
8419;SDS011;4247;48.550;8.822;2023-06-19T02:13:39;1.93;;;1.37;;
8419;SDS011;4247;48.550;8.822;2023-06-19T02:16:08;4.00;;;1.37;;
8419;SDS011;4247;48.550;8.822;2023-06-19T02:18:34;1.97;;;1.60;;
8419;SDS011;4247;48.550;8.822;2023-06-19T02:21:01;1.50;;;1.40;;
8419;SDS011;4247;48.550;8.822;2023-06-19T02:23:28;5.87;;;1.40;;
8419;SDS011;4247;48.550;8.822;2023-06-19T02:25:55;2.33;;;1.47;;
8419;SDS011;4247;48.550;8.822;2023-06-19T02:28:22;1.47;;;1.33;;
8419;SDS011;4247;48.550;8.822;2023-06-19T02:30:48;2.73;;;1.80;;
8419;SDS011;4247;48.550;8.822;2023-06-19T02:33:16;3.43;;;1.80;;
8419;SDS011;4247;48.550;8.822;2023-06-19T02:35:43;1.80;;;1.70;;
8419;SDS011;4247;48.550;8.822;2023-06-19T02:38:10;2.50;;;2.03;;
8419;SDS011;4247;48.550;8.822;2023-06-19T02:40:37;2.63;;;1.93;;
8419;SDS011;4247;48.550;8.822;2023-06-19T02:46:26;1.63;;;1.53;;
8419;SDS011;4247;48.550;8.822;2023-06-19T02:48:54;2.00;;;1.90;;
8419;SDS011;4247;48.550;8.822;2023-06-19T02:51:21;1.63;;;1.53;;
8419;SDS011;4247;48.550;8.822;2023-06-19T02:53:48;2.10;;;1.90;;
8419;SDS011;4247;48.550;8.822;2023-06-19T02:56:14;1.70;;;1.60;;
8419;SDS011;4247;48.550;8.822;2023-06-19T02:58:41;2.50;;;2.03;;
8419;SDS011;4247;48.550;8.822;2023-06-19T03:01:08;1.73;;;1.57;;
8419;SDS011;4247;48.550;8.822;2023-06-19T03:03:34;1.83;;;1.30;;
8419;SDS011;4247;48.550;8.822;2023-06-19T03:06:04;1.47;;;1.37;;
8419;SDS011;4247;48.550;8.822;2023-06-19T03:08:32;2.63;;;1.63;;
8419;SDS011;4247;48.550;8.822;2023-06-19T03:10:59;2.63;;;1.60;;
8419;SDS011;4247;48.550;8.822;2023-06-19T03:13:29;2.17;;;1.50;;
8419;SDS011;4247;48.550;8.822;2023-06-19T03:15:56;3.10;;;1.67;;
8419;SDS011;4247;48.550;8.822;2023-06-19T03:18:22;3.77;;;2.10;;
8419;SDS011;4247;48.550;8.822;2023-06-19T03:20:49;2.33;;;2.13;;
8419;SDS011;4247;48.550;8.822;2023-06-19T03:23:17;2.87;;;1.83;;
8419;SDS011;4247;48.550;8.822;2023-06-19T03:25:44;2.40;;;1.77;;
8419;SDS011;4247;48.550;8.822;2023-06-19T03:28:10;1.63;;;1.53;;
8419;SDS011;4247;48.550;8.822;2023-06-19T03:30:37;1.43;;;1.33;;
8419;SDS011;4247;48.550;8.822;2023-06-19T03:33:04;1.30;;;1.30;;
8419;SDS011;4247;48.550;8.822;2023-06-19T03:35:31;1.47;;;1.20;;
8419;SDS011;4247;48.550;8.822;2023-06-19T03:37:57;1.30;;;1.20;;
8419;SDS011;4247;48.550;8.822;2023-06-19T03:40:26;1.33;;;1.20;;
8419;SDS011;4247;48.550;8.822;2023-06-19T03:42:53;1.13;;;1.10;;
8419;SDS011;4247;48.550;8.822;2023-06-19T03:45:19;1.27;;;1.17;;
8419;SDS011;4247;48.550;8.822;2023-06-19T03:47:46;1.47;;;1.37;;
8419;SDS011;4247;48.550;8.822;2023-06-19T03:50:13;1.20;;;1.03;;
8419;SDS011;4247;48.550;8.822;2023-06-19T03:52:39;1.10;;;1.00;;
8419;SDS011;4247;48.550;8.822;2023-06-19T03:55:06;1.10;;;0.80;;
8419;SDS011;4247;48.550;8.822;2023-06-19T03:57:35;2.20;;;0.90;;
8419;SDS011;4247;48.550;8.822;2023-06-19T04:00:02;2.33;;;1.00;;
8419;SDS011;4247;48.550;8.822;2023-06-19T04:02:32;1.13;;;1.00;;
8419;SDS011;4247;48.550;8.822;2023-06-19T04:04:59;1.27;;;1.00;;
8419;SDS011;4247;48.550;8.822;2023-06-19T04:07:26;1.33;;;1.00;;
8419;SDS011;4247;48.550;8.822;2023-06-19T04:09:53;1.20;;;0.90;;
8419;SDS011;4247;48.550;8.822;2023-06-19T04:12:20;2.27;;;0.90;;
8419;SDS011;4247;48.550;8.822;2023-06-19T04:14:48;1.87;;;1.03;;
8419;SDS011;4247;48.550;8.822;2023-06-19T04:17:15;0.97;;;0.90;;
8419;SDS011;4247;48.550;8.822;2023-06-19T04:19:41;1.63;;;1.00;;
8419;SDS011;4247;48.550;8.822;2023-06-19T04:22:08;1.07;;;0.90;;
8419;SDS011;4247;48.550;8.822;2023-06-19T04:24:35;7.17;;;1.40;;
8419;SDS011;4247;48.550;8.822;2023-06-19T04:27:02;5.60;;;0.90;;
8419;SDS011;4247;48.550;8.822;2023-06-19T04:29:29;1.20;;;0.87;;
8419;SDS011;4247;48.550;8.822;2023-06-19T04:31:58;1.83;;;1.17;;
8419;SDS011;4247;48.550;8.822;2023-06-19T04:34:25;1.10;;;0.97;;
8419;SDS011;4247;48.550;8.822;2023-06-19T04:36:52;0.90;;;0.90;;
8419;SDS011;4247;48.550;8.822;2023-06-19T04:39:23;1.17;;;1.07;;
8419;SDS011;4247;48.550;8.822;2023-06-19T04:41:50;1.00;;;1.00;;
8419;SDS011;4247;48.550;8.822;2023-06-19T04:44:16;1.63;;;1.10;;
8419;SDS011;4247;48.550;8.822;2023-06-19T04:46:43;1.20;;;1.10;;
8419;SDS011;4247;48.550;8.822;2023-06-19T04:49:11;1.33;;;0.97;;
8419;SDS011;4247;48.550;8.822;2023-06-19T04:51:40;3.90;;;1.00;;
8419;SDS011;4247;48.550;8.822;2023-06-19T04:54:07;3.13;;;0.90;;
8419;SDS011;4247;48.550;8.822;2023-06-19T04:56:34;1.00;;;1.00;;
8419;SDS011;4247;48.550;8.822;2023-06-19T04:59:01;2.80;;;1.10;;
8419;SDS011;4247;48.550;8.822;2023-06-19T05:01:28;0.90;;;0.90;;
8419;SDS011;4247;48.550;8.822;2023-06-19T05:03:55;0.80;;;0.80;;
8419;SDS011;4247;48.550;8.822;2023-06-19T05:06:25;0.90;;;0.90;;
8419;SDS011;4247;48.550;8.822;2023-06-19T05:08:52;1.53;;;1.23;;
8419;SDS011;4247;48.550;8.822;2023-06-19T05:11:19;1.10;;;1.00;;
8419;SDS011;4247;48.550;8.822;2023-06-19T05:13:46;1.10;;;1.00;;
8419;SDS011;4247;48.550;8.822;2023-06-19T05:16:12;1.00;;;1.00;;
8419;SDS011;4247;48.550;8.822;2023-06-19T05:18:41;6.87;;;1.43;;
8419;SDS011;4247;48.550;8.822;2023-06-19T05:21:08;3.63;;;1.50;;
8419;SDS011;4247;48.550;8.822;2023-06-19T05:23:37;0.90;;;0.90;;
8419;SDS011;4247;48.550;8.822;2023-06-19T05:26:04;1.33;;;1.23;;
8419;SDS011;4247;48.550;8.822;2023-06-19T05:28:31;2.13;;;1.37;;
8419;SDS011;4247;48.550;8.822;2023-06-19T05:30:58;1.47;;;1.00;;
8419;SDS011;4247;48.550;8.822;2023-06-19T05:33:24;1.07;;;1.03;;
8419;SDS011;4247;48.550;8.822;2023-06-19T05:35:51;1.60;;;1.30;;
8419;SDS011;4247;48.550;8.822;2023-06-19T05:38:19;1.67;;;1.20;;
8419;SDS011;4247;48.550;8.822;2023-06-19T05:40:47;3.23;;;1.23;;
8419;SDS011;4247;48.550;8.822;2023-06-19T05:43:14;1.60;;;1.23;;
8419;SDS011;4247;48.550;8.822;2023-06-19T05:45:41;2.77;;;1.27;;
8419;SDS011;4247;48.550;8.822;2023-06-19T05:48:07;1.53;;;1.43;;
8419;SDS011;4247;48.550;8.822;2023-06-19T05:50:35;1.40;;;1.30;;
8419;SDS011;4247;48.550;8.822;2023-06-19T05:53:02;1.33;;;1.23;;
8419;SDS011;4247;48.550;8.822;2023-06-19T05:55:28;1.03;;;1.00;;
8419;SDS011;4247;48.550;8.822;2023-06-19T05:57:57;2.43;;;1.40;;
8419;SDS011;4247;48.550;8.822;2023-06-19T06:00:23;1.00;;;0.90;;
8419;SDS011;4247;48.550;8.822;2023-06-19T06:02:50;1.00;;;1.00;;
8419;SDS011;4247;48.550;8.822;2023-06-19T06:05:17;2.53;;;1.50;;
8419;SDS011;4247;48.550;8.822;2023-06-19T06:07:45;4.00;;;1.43;;
8419;SDS011;4247;48.550;8.822;2023-06-19T06:10:12;3.33;;;1.20;;
8419;SDS011;4247;48.550;8.822;2023-06-19T06:12:39;1.80;;;1.47;;
8419;SDS011;4247;48.550;8.822;2023-06-19T06:15:07;2.57;;;1.40;;
8419;SDS011;4247;48.550;8.822;2023-06-19T06:17:34;1.53;;;1.40;;
8419;SDS011;4247;48.550;8.822;2023-06-19T06:20:01;1.87;;;1.30;;
8419;SDS011;4247;48.550;8.822;2023-06-19T06:22:33;1.10;;;1.00;;
8419;SDS011;4247;48.550;8.822;2023-06-19T06:25:00;2.53;;;1.60;;
8419;SDS011;4247;48.550;8.822;2023-06-19T06:27:27;2.67;;;2.23;;
8419;SDS011;4247;48.550;8.822;2023-06-19T06:29:53;1.27;;;1.17;;
8419;SDS011;4247;48.550;8.822;2023-06-19T06:32:21;1.47;;;1.33;;
8419;SDS011;4247;48.550;8.822;2023-06-19T06:34:48;3.33;;;1.57;;
8419;SDS011;4247;48.550;8.822;2023-06-19T06:37:15;1.50;;;1.40;;
8419;SDS011;4247;48.550;8.822;2023-06-19T06:39:47;5.07;;;1.60;;
8419;SDS011;4247;48.550;8.822;2023-06-19T06:42:14;1.63;;;1.50;;
8419;SDS011;4247;48.550;8.822;2023-06-19T06:44:40;1.03;;;1.03;;
8419;SDS011;4247;48.550;8.822;2023-06-19T06:47:07;5.13;;;1.23;;
8419;SDS011;4247;48.550;8.822;2023-06-19T06:49:35;6.53;;;1.47;;
8419;SDS011;4247;48.550;8.822;2023-06-19T06:52:02;2.27;;;1.30;;
8419;SDS011;4247;48.550;8.822;2023-06-19T06:54:29;3.30;;;1.83;;
8419;SDS011;4247;48.550;8.822;2023-06-19T06:56:56;1.40;;;1.20;;
8419;SDS011;4247;48.550;8.822;2023-06-19T06:59:25;1.40;;;1.30;;
8419;SDS011;4247;48.550;8.822;2023-06-19T07:01:52;2.63;;;1.17;;
8419;SDS011;4247;48.550;8.822;2023-06-19T07:04:19;1.53;;;1.10;;
8419;SDS011;4247;48.550;8.822;2023-06-19T07:06:47;1.80;;;1.20;;
8419;SDS011;4247;48.550;8.822;2023-06-19T07:09:14;4.40;;;1.57;;
8419;SDS011;4247;48.550;8.822;2023-06-19T07:11:41;1.50;;;1.33;;
8419;SDS011;4247;48.550;8.822;2023-06-19T07:14:08;1.47;;;1.37;;
8419;SDS011;4247;48.550;8.822;2023-06-19T07:16:34;1.90;;;1.40;;
8419;SDS011;4247;48.550;8.822;2023-06-19T07:19:01;1.93;;;1.40;;
8419;SDS011;4247;48.550;8.822;2023-06-19T07:21:28;3.00;;;1.63;;
8419;SDS011;4247;48.550;8.822;2023-06-19T07:23:58;1.73;;;1.63;;
8419;SDS011;4247;48.550;8.822;2023-06-19T07:26:25;1.50;;;1.40;;
8419;SDS011;4247;48.550;8.822;2023-06-19T07:28:52;2.07;;;1.23;;
8419;SDS011;4247;48.550;8.822;2023-06-19T07:31:19;2.17;;;1.57;;
8419;SDS011;4247;48.550;8.822;2023-06-19T07:33:46;1.47;;;1.37;;
8419;SDS011;4247;48.550;8.822;2023-06-19T07:36:12;5.63;;;1.67;;
8419;SDS011;4247;48.550;8.822;2023-06-19T07:38:41;1.60;;;1.50;;
8419;SDS011;4247;48.550;8.822;2023-06-19T07:41:10;1.73;;;1.33;;
8419;SDS011;4247;48.550;8.822;2023-06-19T07:43:37;2.13;;;1.30;;
8419;SDS011;4247;48.550;8.822;2023-06-19T07:46:04;1.77;;;1.40;;
8419;SDS011;4247;48.550;8.822;2023-06-19T07:48:30;2.47;;;1.43;;
8419;SDS011;4247;48.550;8.822;2023-06-19T07:50:57;2.27;;;1.83;;
8419;SDS011;4247;48.550;8.822;2023-06-19T07:53:24;1.40;;;1.30;;
8419;SDS011;4247;48.550;8.822;2023-06-19T07:55:51;2.80;;;1.30;;
8419;SDS011;4247;48.550;8.822;2023-06-19T07:58:19;1.27;;;1.17;;
8419;SDS011;4247;48.550;8.822;2023-06-19T08:00:45;1.50;;;1.37;;
8419;SDS011;4247;48.550;8.822;2023-06-19T08:03:12;2.30;;;1.30;;
8419;SDS011;4247;48.550;8.822;2023-06-19T08:05:39;2.50;;;2.17;;
8419;SDS011;4247;48.550;8.822;2023-06-19T08:08:06;4.00;;;1.40;;
8419;SDS011;4247;48.550;8.822;2023-06-19T08:10:32;1.30;;;1.20;;
8419;SDS011;4247;48.550;8.822;2023-06-19T08:12:59;1.13;;;1.03;;
8419;SDS011;4247;48.550;8.822;2023-06-19T08:15:27;1.10;;;0.90;;
8419;SDS011;4247;48.550;8.822;2023-06-19T08:17:53;1.10;;;1.10;;
8419;SDS011;4247;48.550;8.822;2023-06-19T08:20:20;2.43;;;1.20;;
8419;SDS011;4247;48.550;8.822;2023-06-19T08:22:47;1.83;;;1.10;;
8419;SDS011;4247;48.550;8.822;2023-06-19T08:25:14;2.30;;;1.40;;
8419;SDS011;4247;48.550;8.822;2023-06-19T08:27:41;1.73;;;1.17;;
8419;SDS011;4247;48.550;8.822;2023-06-19T08:30:10;1.30;;;1.20;;
8419;SDS011;4247;48.550;8.822;2023-06-19T08:32:38;1.90;;;1.37;;
8419;SDS011;4247;48.550;8.822;2023-06-19T08:35:05;1.40;;;1.30;;
8419;SDS011;4247;48.550;8.822;2023-06-19T08:37:32;1.60;;;1.50;;
8419;SDS011;4247;48.550;8.822;2023-06-19T08:39:59;2.33;;;1.03;;
8419;SDS011;4247;48.550;8.822;2023-06-19T08:42:27;1.30;;;1.20;;
8419;SDS011;4247;48.550;8.822;2023-06-19T08:44:54;2.10;;;1.13;;
8419;SDS011;4247;48.550;8.822;2023-06-19T08:47:21;1.83;;;0.90;;
8419;SDS011;4247;48.550;8.822;2023-06-19T08:49:49;0.90;;;0.90;;
8419;SDS011;4247;48.550;8.822;2023-06-19T08:52:15;1.40;;;1.30;;
8419;SDS011;4247;48.550;8.822;2023-06-19T08:54:42;1.23;;;1.13;;
8419;SDS011;4247;48.550;8.822;2023-06-19T08:57:09;1.43;;;1.33;;
8419;SDS011;4247;48.550;8.822;2023-06-19T08:59:37;1.20;;;1.10;;
8419;SDS011;4247;48.550;8.822;2023-06-19T09:02:04;2.97;;;1.10;;
8419;SDS011;4247;48.550;8.822;2023-06-19T09:04:31;2.43;;;1.00;;
8419;SDS011;4247;48.550;8.822;2023-06-19T09:07:00;0.83;;;0.83;;
8419;SDS011;4247;48.550;8.822;2023-06-19T09:09:28;1.63;;;1.13;;
8419;SDS011;4247;48.550;8.822;2023-06-19T09:11:59;1.20;;;1.10;;
8419;SDS011;4247;48.550;8.822;2023-06-19T09:14:33;1.00;;;1.00;;
8419;SDS011;4247;48.550;8.822;2023-06-19T09:17:01;2.57;;;0.77;;
8419;SDS011;4247;48.550;8.822;2023-06-19T09:19:28;1.37;;;1.00;;
8419;SDS011;4247;48.550;8.822;2023-06-19T09:22:00;1.17;;;1.07;;
8419;SDS011;4247;48.550;8.822;2023-06-19T09:24:34;1.13;;;1.00;;
8419;SDS011;4247;48.550;8.822;2023-06-19T09:27:05;3.33;;;0.83;;
8419;SDS011;4247;48.550;8.822;2023-06-19T09:29:35;0.73;;;0.73;;
8419;SDS011;4247;48.550;8.822;2023-06-19T09:32:13;1.33;;;0.70;;
8419;SDS011;4247;48.550;8.822;2023-06-19T09:34:40;0.70;;;0.70;;
8419;SDS011;4247;48.550;8.822;2023-06-19T09:37:09;0.80;;;0.80;;
8419;SDS011;4247;48.550;8.822;2023-06-19T09:39:36;1.90;;;0.60;;
8419;SDS011;4247;48.550;8.822;2023-06-19T09:42:04;0.67;;;0.67;;
8419;SDS011;4247;48.550;8.822;2023-06-19T09:44:40;1.10;;;1.00;;
8419;SDS011;4247;48.550;8.822;2023-06-19T09:47:11;1.50;;;0.70;;
8419;SDS011;4247;48.550;8.822;2023-06-19T09:49:45;0.80;;;0.80;;
8419;SDS011;4247;48.550;8.822;2023-06-19T09:52:16;0.80;;;0.80;;
8419;SDS011;4247;48.550;8.822;2023-06-19T09:54:45;12.00;;;1.37;;
8419;SDS011;4247;48.550;8.822;2023-06-19T09:57:12;0.90;;;0.90;;
8419;SDS011;4247;48.550;8.822;2023-06-19T09:59:39;0.70;;;0.70;;
8419;SDS011;4247;48.550;8.822;2023-06-19T10:02:08;1.57;;;0.90;;
8419;SDS011;4247;48.550;8.822;2023-06-19T10:04:42;0.90;;;0.90;;
8419;SDS011;4247;48.550;8.822;2023-06-19T10:07:19;1.00;;;1.00;;
8419;SDS011;4247;48.550;8.822;2023-06-19T10:09:56;2.70;;;0.80;;
8419;SDS011;4247;48.550;8.822;2023-06-19T10:12:34;1.83;;;0.80;;
8419;SDS011;4247;48.550;8.822;2023-06-19T10:15:09;0.90;;;0.90;;
8419;SDS011;4247;48.550;8.822;2023-06-19T10:17:37;0.73;;;0.73;;
8419;SDS011;4247;48.550;8.822;2023-06-19T10:20:17;1.17;;;0.90;;
8419;SDS011;4247;48.550;8.822;2023-06-19T10:22:52;0.70;;;0.70;;
8419;SDS011;4247;48.550;8.822;2023-06-19T10:25:30;0.80;;;0.80;;
8419;SDS011;4247;48.550;8.822;2023-06-19T10:27:58;0.77;;;0.70;;
8419;SDS011;4247;48.550;8.822;2023-06-19T10:30:26;2.60;;;0.67;;
8419;SDS011;4247;48.550;8.822;2023-06-19T10:32:54;0.93;;;0.70;;
8419;SDS011;4247;48.550;8.822;2023-06-19T10:35:21;0.60;;;0.60;;
8419;SDS011;4247;48.550;8.822;2023-06-19T10:37:49;0.87;;;0.57;;
8419;SDS011;4247;48.550;8.822;2023-06-19T10:40:17;0.60;;;0.60;;
8419;SDS011;4247;48.550;8.822;2023-06-19T10:42:44;0.53;;;0.50;;
8419;SDS011;4247;48.550;8.822;2023-06-19T10:45:12;0.50;;;0.50;;
8419;SDS011;4247;48.550;8.822;2023-06-19T10:47:41;0.63;;;0.50;;
8419;SDS011;4247;48.550;8.822;2023-06-19T10:50:09;0.60;;;0.60;;
8419;SDS011;4247;48.550;8.822;2023-06-19T10:52:39;0.60;;;0.60;;
8419;SDS011;4247;48.550;8.822;2023-06-19T10:55:09;0.70;;;0.63;;
8419;SDS011;4247;48.550;8.822;2023-06-19T10:57:37;0.67;;;0.67;;
8419;SDS011;4247;48.550;8.822;2023-06-19T11:00:05;0.60;;;0.60;;
8419;SDS011;4247;48.550;8.822;2023-06-19T11:02:37;1.80;;;0.97;;
8419;SDS011;4247;48.550;8.822;2023-06-19T11:05:08;0.60;;;0.60;;
8419;SDS011;4247;48.550;8.822;2023-06-19T11:07:35;1.30;;;0.73;;
8419;SDS011;4247;48.550;8.822;2023-06-19T11:10:01;1.57;;;0.63;;
8419;SDS011;4247;48.550;8.822;2023-06-19T11:12:30;1.57;;;0.80;;
8419;SDS011;4247;48.550;8.822;2023-06-19T11:14:58;0.60;;;0.60;;
8419;SDS011;4247;48.550;8.822;2023-06-19T11:17:25;0.70;;;0.70;;
8419;SDS011;4247;48.550;8.822;2023-06-19T11:19:52;0.50;;;0.50;;
8419;SDS011;4247;48.550;8.822;2023-06-19T11:22:18;0.70;;;0.70;;
8419;SDS011;4247;48.550;8.822;2023-06-19T11:24:45;0.70;;;0.70;;
8419;SDS011;4247;48.550;8.822;2023-06-19T11:27:16;0.70;;;0.70;;
8419;SDS011;4247;48.550;8.822;2023-06-19T11:29:45;1.03;;;0.70;;
8419;SDS011;4247;48.550;8.822;2023-06-19T11:32:13;0.80;;;0.70;;
8419;SDS011;4247;48.550;8.822;2023-06-19T11:34:40;1.53;;;0.67;;
8419;SDS011;4247;48.550;8.822;2023-06-19T11:37:13;0.87;;;0.87;;
8419;SDS011;4247;48.550;8.822;2023-06-19T11:39:40;0.70;;;0.70;;
8419;SDS011;4247;48.550;8.822;2023-06-19T11:42:07;0.70;;;0.70;;
8419;SDS011;4247;48.550;8.822;2023-06-19T11:44:34;0.60;;;0.60;;
8419;SDS011;4247;48.550;8.822;2023-06-19T11:47:02;0.97;;;0.67;;
8419;SDS011;4247;48.550;8.822;2023-06-19T11:49:35;0.90;;;0.90;;
8419;SDS011;4247;48.550;8.822;2023-06-19T11:52:03;0.70;;;0.70;;
8419;SDS011;4247;48.550;8.822;2023-06-19T11:54:31;0.80;;;0.80;;
8419;SDS011;4247;48.550;8.822;2023-06-19T11:56:57;0.80;;;0.80;;
8419;SDS011;4247;48.550;8.822;2023-06-19T11:59:24;1.23;;;0.70;;
8419;SDS011;4247;48.550;8.822;2023-06-19T12:01:51;1.30;;;0.68;;
8419;SDS011;4247;48.550;8.822;2023-06-19T12:04:19;0.60;;;0.60;;
8419;SDS011;4247;48.550;8.822;2023-06-19T12:06:46;0.70;;;0.70;;
8419;SDS011;4247;48.550;8.822;2023-06-19T12:09:13;1.13;;;1.10;;
8419;SDS011;4247;48.550;8.822;2023-06-19T12:11:39;0.93;;;0.93;;
8419;SDS011;4247;48.550;8.822;2023-06-19T12:14:06;1.52;;;0.80;;
8419;SDS011;4247;48.550;8.822;2023-06-19T12:16:33;0.70;;;0.70;;
8419;SDS011;4247;48.550;8.822;2023-06-19T12:18:59;0.80;;;0.70;;
8419;SDS011;4247;48.550;8.822;2023-06-19T12:21:27;0.80;;;0.80;;
8419;SDS011;4247;48.550;8.822;2023-06-19T12:23:54;0.70;;;0.70;;
8419;SDS011;4247;48.550;8.822;2023-06-19T12:26:21;0.65;;;0.65;;
8419;SDS011;4247;48.550;8.822;2023-06-19T12:28:49;1.23;;;0.73;;
8419;SDS011;4247;48.550;8.822;2023-06-19T12:31:16;0.87;;;0.83;;
8419;SDS011;4247;48.550;8.822;2023-06-19T12:33:43;4.53;;;1.00;;
8419;SDS011;4247;48.550;8.822;2023-06-19T12:36:12;1.03;;;1.03;;
8419;SDS011;4247;48.550;8.822;2023-06-19T12:38:40;1.40;;;1.27;;
8419;SDS011;4247;48.550;8.822;2023-06-19T12:41:07;1.10;;;1.00;;
8419;SDS011;4247;48.550;8.822;2023-06-19T12:43:34;1.38;;;1.27;;
8419;SDS011;4247;48.550;8.822;2023-06-19T12:46:01;1.02;;;1.00;;
8419;SDS011;4247;48.550;8.822;2023-06-19T12:48:27;1.20;;;1.10;;
8419;SDS011;4247;48.550;8.822;2023-06-19T12:50:54;1.30;;;1.20;;
8419;SDS011;4247;48.550;8.822;2023-06-19T12:53:21;1.05;;;0.95;;
8419;SDS011;4247;48.550;8.822;2023-06-19T12:55:53;1.33;;;1.13;;
8419;SDS011;4247;48.550;8.822;2023-06-19T12:58:19;1.10;;;1.00;;
8419;SDS011;4247;48.550;8.822;2023-06-19T13:00:46;1.20;;;1.10;;
8419;SDS011;4247;48.550;8.822;2023-06-19T13:03:13;1.48;;;1.10;;
8419;SDS011;4247;48.550;8.822;2023-06-19T13:05:40;3.13;;;1.10;;
8419;SDS011;4247;48.550;8.822;2023-06-19T13:08:06;1.23;;;1.13;;
8419;SDS011;4247;48.550;8.822;2023-06-19T13:10:33;1.83;;;1.17;;
8419;SDS011;4247;48.550;8.822;2023-06-19T13:13:01;1.92;;;1.00;;
8419;SDS011;4247;48.550;8.822;2023-06-19T13:15:30;1.45;;;1.35;;
8419;SDS011;4247;48.550;8.822;2023-06-19T13:17:58;1.23;;;1.13;;
8419;SDS011;4247;48.550;8.822;2023-06-19T13:20:25;1.30;;;1.20;;
8419;SDS011;4247;48.550;8.822;2023-06-19T13:22:52;1.30;;;1.20;;
8419;SDS011;4247;48.550;8.822;2023-06-19T13:25:19;1.30;;;1.20;;
8419;SDS011;4247;48.550;8.822;2023-06-19T13:27:46;1.17;;;1.17;;
8419;SDS011;4247;48.550;8.822;2023-06-19T13:30:14;1.85;;;1.10;;
8419;SDS011;4247;48.550;8.822;2023-06-19T13:32:41;1.48;;;1.38;;
8419;SDS011;4247;48.550;8.822;2023-06-19T13:35:08;1.40;;;1.30;;
8419;SDS011;4247;48.550;8.822;2023-06-19T13:37:35;1.60;;;1.50;;
8419;SDS011;4247;48.550;8.822;2023-06-19T13:40:04;5.80;;;2.13;;
8419;SDS011;4247;48.550;8.822;2023-06-19T13:42:32;1.35;;;1.23;;
8419;SDS011;4247;48.550;8.822;2023-06-19T13:45:00;1.20;;;1.10;;
8419;SDS011;4247;48.550;8.822;2023-06-19T13:47:28;2.15;;;1.77;;
8419;SDS011;4247;48.550;8.822;2023-06-19T13:49:55;1.27;;;1.17;;
8419;SDS011;4247;48.550;8.822;2023-06-19T13:52:22;1.30;;;1.20;;
8419;SDS011;4247;48.550;8.822;2023-06-19T13:54:49;1.15;;;1.15;;
8419;SDS011;4247;48.550;8.822;2023-06-19T13:57:15;1.95;;;1.30;;
8419;SDS011;4247;48.550;8.822;2023-06-19T13:59:42;1.60;;;1.50;;
8419;SDS011;4247;48.550;8.822;2023-06-19T14:02:09;1.55;;;1.40;;
8419;SDS011;4247;48.550;8.822;2023-06-19T14:04:37;1.55;;;1.45;;
8419;SDS011;4247;48.550;8.822;2023-06-19T14:07:04;1.77;;;1.67;;
8419;SDS011;4247;48.550;8.822;2023-06-19T14:09:31;4.63;;;1.23;;
8419;SDS011;4247;48.550;8.822;2023-06-19T14:11:58;2.03;;;1.63;;
8419;SDS011;4247;48.550;8.822;2023-06-19T14:14:25;1.55;;;1.45;;
8419;SDS011;4247;48.550;8.822;2023-06-19T14:16:51;4.47;;;1.67;;
8419;SDS011;4247;48.550;8.822;2023-06-19T14:19:18;2.05;;;1.40;;
8419;SDS011;4247;48.550;8.822;2023-06-19T14:21:46;2.53;;;1.80;;
8419;SDS011;4247;48.550;8.822;2023-06-19T14:24:13;1.50;;;1.40;;
8419;SDS011;4247;48.550;8.822;2023-06-19T14:26:41;1.67;;;1.57;;
8419;SDS011;4247;48.550;8.822;2023-06-19T14:29:08;1.80;;;1.70;;
8419;SDS011;4247;48.550;8.822;2023-06-19T14:31:34;1.67;;;1.57;;
8419;SDS011;4247;48.550;8.822;2023-06-19T14:34:01;1.98;;;1.70;;
8419;SDS011;4247;48.550;8.822;2023-06-19T14:36:28;1.40;;;1.30;;
8419;SDS011;4247;48.550;8.822;2023-06-19T14:38:56;1.42;;;1.33;;
8419;SDS011;4247;48.550;8.822;2023-06-19T14:41:23;1.50;;;1.35;;
8419;SDS011;4247;48.550;8.822;2023-06-19T14:43:49;4.50;;;1.90;;
8419;SDS011;4247;48.550;8.822;2023-06-19T14:46:16;2.17;;;1.58;;
8419;SDS011;4247;48.550;8.822;2023-06-19T14:48:43;1.98;;;1.40;;
8419;SDS011;4247;48.550;8.822;2023-06-19T14:51:10;1.65;;;1.55;;
8419;SDS011;4247;48.550;8.822;2023-06-19T14:53:36;1.35;;;1.20;;
8419;SDS011;4247;48.550;8.822;2023-06-19T14:56:04;3.25;;;1.63;;
8419;SDS011;4247;48.550;8.822;2023-06-19T14:58:32;3.03;;;1.67;;
8419;SDS011;4247;48.550;8.822;2023-06-19T15:00:58;1.73;;;1.55;;
8419;SDS011;4247;48.550;8.822;2023-06-19T15:03:25;1.55;;;1.45;;
8419;SDS011;4247;48.550;8.822;2023-06-19T15:05:52;2.67;;;1.63;;
8419;SDS011;4247;48.550;8.822;2023-06-19T15:08:19;2.35;;;1.35;;
8419;SDS011;4247;48.550;8.822;2023-06-19T15:10:48;3.17;;;1.60;;
8419;SDS011;4247;48.550;8.822;2023-06-19T15:13:16;1.70;;;1.60;;
8419;SDS011;4247;48.550;8.822;2023-06-19T15:15:43;1.60;;;1.50;;
8419;SDS011;4247;48.550;8.822;2023-06-19T15:18:11;2.25;;;1.55;;
8419;SDS011;4247;48.550;8.822;2023-06-19T15:20:38;4.22;;;1.40;;